sensor_id;sensor_type;location;lat;lon;timestamp;temperature;humidity
67748;HTU21D;54543;50.712;6.070;2022-12-11T00:01:23;-0.58;89.59
67748;HTU21D;54543;50.712;6.070;2022-12-11T00:03:49;-0.58;89.99
67748;HTU21D;54543;50.712;6.070;2022-12-11T00:06:18;-0.56;89.83
67748;HTU21D;54543;50.712;6.070;2022-12-11T00:08:44;-0.55;89.82
67748;HTU21D;54543;50.712;6.070;2022-12-11T00:11:16;-0.53;89.96
67748;HTU21D;54543;50.712;6.070;2022-12-11T00:13:42;-0.55;89.87
67748;HTU21D;54543;50.712;6.070;2022-12-11T00:16:08;-0.56;90.06
67748;HTU21D;54543;50.712;6.070;2022-12-11T00:18:34;-0.53;90.27
67748;HTU21D;54543;50.712;6.070;2022-12-11T00:21:01;-0.50;90.28
67748;HTU21D;54543;50.712;6.070;2022-12-11T00:23:27;-0.47;90.12
67748;HTU21D;54543;50.712;6.070;2022-12-11T00:25:53;-0.46;90.05
67748;HTU21D;54543;50.712;6.070;2022-12-11T00:28:18;-0.46;90.03
67748;HTU21D;54543;50.712;6.070;2022-12-11T00:30:45;-0.47;90.02
67748;HTU21D;54543;50.712;6.070;2022-12-11T00:33:12;-0.51;89.93
67748;HTU21D;54543;50.712;6.070;2022-12-11T00:35:40;-0.55;89.98
67748;HTU21D;54543;50.712;6.070;2022-12-11T00:38:06;-0.55;89.91
67748;HTU21D;54543;50.712;6.070;2022-12-11T00:40:35;-0.56;90.13
67748;HTU21D;54543;50.712;6.070;2022-12-11T00:43:02;-0.57;90.41
67748;HTU21D;54543;50.712;6.070;2022-12-11T00:45:27;-0.56;90.43
67748;HTU21D;54543;50.712;6.070;2022-12-11T00:47:53;-0.58;90.51
67748;HTU21D;54543;50.712;6.070;2022-12-11T00:50:18;-0.57;90.61
67748;HTU21D;54543;50.712;6.070;2022-12-11T00:52:44;-0.53;90.72
67748;HTU21D;54543;50.712;6.070;2022-12-11T00:55:09;-0.54;90.74
67748;HTU21D;54543;50.712;6.070;2022-12-11T00:57:35;-0.55;90.60
67748;HTU21D;54543;50.712;6.070;2022-12-11T01:00:03;-0.51;90.37
67748;HTU21D;54543;50.712;6.070;2022-12-11T01:02:31;-0.50;90.16
67748;HTU21D;54543;50.712;6.070;2022-12-11T01:04:56;-0.51;90.36
67748;HTU21D;54543;50.712;6.070;2022-12-11T01:07:22;-0.47;89.85
67748;HTU21D;54543;50.712;6.070;2022-12-11T01:09:47;-0.47;89.75
67748;HTU21D;54543;50.712;6.070;2022-12-11T01:12:31;-0.52;89.99
67748;HTU21D;54543;50.712;6.070;2022-12-11T01:14:57;-0.51;90.00
67748;HTU21D;54543;50.712;6.070;2022-12-11T01:17:22;-0.52;89.63
67748;HTU21D;54543;50.712;6.070;2022-12-11T01:19:48;-0.57;89.98
67748;HTU21D;54543;50.712;6.070;2022-12-11T01:22:13;-0.57;90.08
67748;HTU21D;54543;50.712;6.070;2022-12-11T01:24:39;-0.59;90.43
67748;HTU21D;54543;50.712;6.070;2022-12-11T01:27:05;-0.54;90.28
67748;HTU21D;54543;50.712;6.070;2022-12-11T01:29:31;-0.52;89.97
67748;HTU21D;54543;50.712;6.070;2022-12-11T01:31:56;-0.49;90.04
67748;HTU21D;54543;50.712;6.070;2022-12-11T01:34:22;-0.52;90.36
67748;HTU21D;54543;50.712;6.070;2022-12-11T01:36:47;-0.55;90.10
67748;HTU21D;54543;50.712;6.070;2022-12-11T01:39:13;-0.58;90.37
67748;HTU21D;54543;50.712;6.070;2022-12-11T01:41:39;-0.57;90.43
67748;HTU21D;54543;50.712;6.070;2022-12-11T01:45:01;-0.56;90.32
67748;HTU21D;54543;50.712;6.070;2022-12-11T01:46:52;-0.59;90.30
67748;HTU21D;54543;50.712;6.070;2022-12-11T01:49:20;-0.61;90.42
67748;HTU21D;54543;50.712;6.070;2022-12-11T01:51:59;-0.62;90.60
67748;HTU21D;54543;50.712;6.070;2022-12-11T01:54:27;-0.60;90.37
67748;HTU21D;54543;50.712;6.070;2022-12-11T01:56:57;-0.62;90.27
67748;HTU21D;54543;50.712;6.070;2022-12-11T01:59:26;-0.61;90.02
67748;HTU21D;54543;50.712;6.070;2022-12-11T02:01:59;-0.58;89.86
67748;HTU21D;54543;50.712;6.070;2022-12-11T02:04:27;-0.61;90.14
67748;HTU21D;54543;50.712;6.070;2022-12-11T02:06:53;-0.58;90.05
67748;HTU21D;54543;50.712;6.070;2022-12-11T02:09:22;-0.61;90.28
67748;HTU21D;54543;50.712;6.070;2022-12-11T02:12:09;-0.61;90.37
67748;HTU21D;54543;50.712;6.070;2022-12-11T02:20:13;-0.72;90.65
67748;HTU21D;54543;50.712;6.070;2022-12-11T02:22:57;-0.73;91.12
67748;HTU21D;54543;50.712;6.070;2022-12-11T02:25:53;-0.70;90.88
67748;HTU21D;54543;50.712;6.070;2022-12-11T02:28:44;-0.70;91.02
67748;HTU21D;54543;50.712;6.070;2022-12-11T02:31:36;-0.68;90.79
67748;HTU21D;54543;50.712;6.070;2022-12-11T02:36:47;-0.68;91.12
67748;HTU21D;54543;50.712;6.070;2022-12-11T02:39:16;-0.67;91.13
67748;HTU21D;54543;50.712;6.070;2022-12-11T02:41:48;-0.68;91.02
67748;HTU21D;54543;50.712;6.070;2022-12-11T02:44:16;-0.65;91.13
67748;HTU21D;54543;50.712;6.070;2022-12-11T02:46:43;-0.65;91.27
67748;HTU21D;54543;50.712;6.070;2022-12-11T02:49:11;-0.59;91.10
67748;HTU21D;54543;50.712;6.070;2022-12-11T02:51:40;-0.59;91.25
67748;HTU21D;54543;50.712;6.070;2022-12-11T02:54:12;-0.57;90.88
67748;HTU21D;54543;50.712;6.070;2022-12-11T02:56:52;-0.54;90.55
67748;HTU21D;54543;50.712;6.070;2022-12-11T02:59:28;-0.55;90.32
67748;HTU21D;54543;50.712;6.070;2022-12-11T03:01:55;-0.59;90.83
67748;HTU21D;54543;50.712;6.070;2022-12-11T03:04:20;-0.64;90.76
67748;HTU21D;54543;50.712;6.070;2022-12-11T03:06:52;-0.64;90.71
67748;HTU21D;54543;50.712;6.070;2022-12-11T03:09:20;-0.66;91.04
67748;HTU21D;54543;50.712;6.070;2022-12-11T03:11:46;-0.67;91.47
67748;HTU21D;54543;50.712;6.070;2022-12-11T03:14:14;-0.71;91.89
67748;HTU21D;54543;50.712;6.070;2022-12-11T03:17:04;-0.70;92.11
67748;HTU21D;54543;50.712;6.070;2022-12-11T03:24:45;-0.66;91.44
67748;HTU21D;54543;50.712;6.070;2022-12-11T03:27:21;-0.64;91.69
67748;HTU21D;54543;50.712;6.070;2022-12-11T03:30:02;-0.65;91.84
67748;HTU21D;54543;50.712;6.070;2022-12-11T03:32:33;-0.66;91.98
67748;HTU21D;54543;50.712;6.070;2022-12-11T03:35:12;-0.65;92.08
67748;HTU21D;54543;50.712;6.070;2022-12-11T03:37:39;-0.65;92.19
67748;HTU21D;54543;50.712;6.070;2022-12-11T03:40:09;-0.64;91.95
67748;HTU21D;54543;50.712;6.070;2022-12-11T03:42:37;-0.65;91.95
67748;HTU21D;54543;50.712;6.070;2022-12-11T03:45:05;-0.62;92.05
67748;HTU21D;54543;50.712;6.070;2022-12-11T03:47:32;-0.57;92.06
67748;HTU21D;54543;50.712;6.070;2022-12-11T03:49:58;-0.51;91.43
67748;HTU21D;54543;50.712;6.070;2022-12-11T03:52:26;-0.51;91.21
67748;HTU21D;54543;50.712;6.070;2022-12-11T03:54:55;-0.51;91.10
67748;HTU21D;54543;50.712;6.070;2022-12-11T03:57:25;-0.45;90.61
67748;HTU21D;54543;50.712;6.070;2022-12-11T03:59:53;-0.47;90.66
67748;HTU21D;54543;50.712;6.070;2022-12-11T04:02:18;-0.45;90.61
67748;HTU21D;54543;50.712;6.070;2022-12-11T04:04:44;-0.45;90.30
67748;HTU21D;54543;50.712;6.070;2022-12-11T04:07:10;-0.47;89.94
67748;HTU21D;54543;50.712;6.070;2022-12-11T04:09:35;-0.52;90.01
67748;HTU21D;54543;50.712;6.070;2022-12-11T04:12:01;-0.54;90.22
67748;HTU21D;54543;50.712;6.070;2022-12-11T04:14:26;-0.53;90.24
67748;HTU21D;54543;50.712;6.070;2022-12-11T04:17:12;-0.55;90.41
67748;HTU21D;54543;50.712;6.070;2022-12-11T04:19:57;-0.59;90.62
67748;HTU21D;54543;50.712;6.070;2022-12-11T04:22:41;-0.62;90.69
67748;HTU21D;54543;50.712;6.070;2022-12-11T04:25:25;-0.64;90.56
67748;HTU21D;54543;50.712;6.070;2022-12-11T04:27:51;-0.67;90.71
67748;HTU21D;54543;50.712;6.070;2022-12-11T04:30:26;-0.66;90.57
67748;HTU21D;54543;50.712;6.070;2022-12-11T04:32:53;-0.68;90.57
67748;HTU21D;54543;50.712;6.070;2022-12-11T04:35:19;-0.71;90.63
67748;HTU21D;54543;50.712;6.070;2022-12-11T04:37:45;-0.70;90.53
67748;HTU21D;54543;50.712;6.070;2022-12-11T04:40:13;-0.69;90.57
67748;HTU21D;54543;50.712;6.070;2022-12-11T04:42:39;-0.68;90.16
67748;HTU21D;54543;50.712;6.070;2022-12-11T04:45:06;-0.71;89.93
67748;HTU21D;54543;50.712;6.070;2022-12-11T04:47:34;-0.71;89.58
67748;HTU21D;54543;50.712;6.070;2022-12-11T04:50:00;-0.75;89.61
67748;HTU21D;54543;50.712;6.070;2022-12-11T04:52:25;-0.79;89.96
67748;HTU21D;54543;50.712;6.070;2022-12-11T04:54:51;-0.77;90.09
67748;HTU21D;54543;50.712;6.070;2022-12-11T04:57:16;-0.77;90.16
67748;HTU21D;54543;50.712;6.070;2022-12-11T04:59:42;-0.76;90.16
67748;HTU21D;54543;50.712;6.070;2022-12-11T05:02:07;-0.76;90.15
67748;HTU21D;54543;50.712;6.070;2022-12-11T05:04:34;-0.75;90.08
67748;HTU21D;54543;50.712;6.070;2022-12-11T05:07:00;-0.75;90.02
67748;HTU21D;54543;50.712;6.070;2022-12-11T05:09:26;-0.80;89.73
67748;HTU21D;54543;50.712;6.070;2022-12-11T05:11:52;-0.82;89.67
67748;HTU21D;54543;50.712;6.070;2022-12-11T05:14:19;-0.83;89.78
67748;HTU21D;54543;50.712;6.070;2022-12-11T05:16:44;-0.82;89.76
67748;HTU21D;54543;50.712;6.070;2022-12-11T05:19:09;-0.82;89.70
67748;HTU21D;54543;50.712;6.070;2022-12-11T05:21:35;-0.80;89.62
67748;HTU21D;54543;50.712;6.070;2022-12-11T05:24:01;-0.84;89.61
67748;HTU21D;54543;50.712;6.070;2022-12-11T05:26:27;-0.84;89.82
67748;HTU21D;54543;50.712;6.070;2022-12-11T05:28:53;-0.85;89.99
67748;HTU21D;54543;50.712;6.070;2022-12-11T05:31:21;-0.82;90.15
67748;HTU21D;54543;50.712;6.070;2022-12-11T05:33:47;-0.82;90.12
67748;HTU21D;54543;50.712;6.070;2022-12-11T05:36:18;-0.81;90.04
67748;HTU21D;54543;50.712;6.070;2022-12-11T05:38:44;-0.84;89.65
67748;HTU21D;54543;50.712;6.070;2022-12-11T05:41:12;-0.84;89.66
67748;HTU21D;54543;50.712;6.070;2022-12-11T05:43:38;-0.84;89.54
67748;HTU21D;54543;50.712;6.070;2022-12-11T05:48:34;-0.84;89.45
67748;HTU21D;54543;50.712;6.070;2022-12-11T05:51:00;-0.87;89.35
67748;HTU21D;54543;50.712;6.070;2022-12-11T05:53:27;-0.86;89.59
67748;HTU21D;54543;50.712;6.070;2022-12-11T05:55:52;-0.83;89.64
67748;HTU21D;54543;50.712;6.070;2022-12-11T05:58:19;-0.85;89.07
67748;HTU21D;54543;50.712;6.070;2022-12-11T06:00:44;-0.88;88.91
67748;HTU21D;54543;50.712;6.070;2022-12-11T06:03:10;-0.95;88.58
67748;HTU21D;54543;50.712;6.070;2022-12-11T06:05:40;-0.96;88.94
67748;HTU21D;54543;50.712;6.070;2022-12-11T06:08:06;-0.98;89.05
67748;HTU21D;54543;50.712;6.070;2022-12-11T06:10:31;-0.98;89.23
67748;HTU21D;54543;50.712;6.070;2022-12-11T06:12:57;-0.97;89.31
67748;HTU21D;54543;50.712;6.070;2022-12-11T06:15:23;-0.94;89.38
67748;HTU21D;54543;50.712;6.070;2022-12-11T06:17:48;-0.91;89.24
67748;HTU21D;54543;50.712;6.070;2022-12-11T06:20:14;-0.93;89.03
67748;HTU21D;54543;50.712;6.070;2022-12-11T06:22:40;-0.91;89.01
67748;HTU21D;54543;50.712;6.070;2022-12-11T06:25:05;-0.93;89.09
67748;HTU21D;54543;50.712;6.070;2022-12-11T06:27:31;-0.95;89.12
67748;HTU21D;54543;50.712;6.070;2022-12-11T06:29:57;-0.93;89.25
67748;HTU21D;54543;50.712;6.070;2022-12-11T06:32:22;-0.91;89.29
67748;HTU21D;54543;50.712;6.070;2022-12-11T06:34:48;-0.87;89.47
67748;HTU21D;54543;50.712;6.070;2022-12-11T06:37:13;-0.82;89.54
67748;HTU21D;54543;50.712;6.070;2022-12-11T06:39:39;-0.80;89.44
67748;HTU21D;54543;50.712;6.070;2022-12-11T06:42:04;-0.75;89.47
67748;HTU21D;54543;50.712;6.070;2022-12-11T06:44:30;-0.74;89.31
67748;HTU21D;54543;50.712;6.070;2022-12-11T06:46:55;-0.71;89.31
67748;HTU21D;54543;50.712;6.070;2022-12-11T06:49:21;-0.67;89.34
67748;HTU21D;54543;50.712;6.070;2022-12-11T06:51:46;-0.66;89.12
67748;HTU21D;54543;50.712;6.070;2022-12-11T06:54:12;-0.65;88.97
67748;HTU21D;54543;50.712;6.070;2022-12-11T06:56:37;-0.66;89.05
67748;HTU21D;54543;50.712;6.070;2022-12-11T06:59:03;-0.65;88.83
67748;HTU21D;54543;50.712;6.070;2022-12-11T07:01:29;-0.60;88.97
67748;HTU21D;54543;50.712;6.070;2022-12-11T07:03:56;-0.59;88.79
67748;HTU21D;54543;50.712;6.070;2022-12-11T07:06:22;-0.58;88.58
67748;HTU21D;54543;50.712;6.070;2022-12-11T07:08:49;-0.57;88.47
67748;HTU21D;54543;50.712;6.070;2022-12-11T07:11:16;-0.56;88.47
67748;HTU21D;54543;50.712;6.070;2022-12-11T07:13:42;-0.54;88.41
67748;HTU21D;54543;50.712;6.070;2022-12-11T07:16:10;-0.53;88.21
67748;HTU21D;54543;50.712;6.070;2022-12-11T07:18:37;-0.54;87.35
67748;HTU21D;54543;50.712;6.070;2022-12-11T07:21:04;-0.57;87.74
67748;HTU21D;54543;50.712;6.070;2022-12-11T07:23:30;-0.59;87.83
67748;HTU21D;54543;50.712;6.070;2022-12-11T07:25:56;-0.59;87.88
67748;HTU21D;54543;50.712;6.070;2022-12-11T07:28:22;-0.57;88.09
67748;HTU21D;54543;50.712;6.070;2022-12-11T07:30:48;-0.54;88.13
67748;HTU21D;54543;50.712;6.070;2022-12-11T07:33:29;-0.49;88.18
67748;HTU21D;54543;50.712;6.070;2022-12-11T07:36:13;-0.46;88.12
67748;HTU21D;54543;50.712;6.070;2022-12-11T07:38:39;-0.42;87.94
67748;HTU21D;54543;50.712;6.070;2022-12-11T07:41:07;-0.42;87.86
67748;HTU21D;54543;50.712;6.070;2022-12-11T07:43:34;-0.40;87.77
67748;HTU21D;54543;50.712;6.070;2022-12-11T07:46:04;-0.42;87.52
67748;HTU21D;54543;50.712;6.070;2022-12-11T07:48:30;-0.44;87.51
67748;HTU21D;54543;50.712;6.070;2022-12-11T07:51:28;-0.45;87.04
67748;HTU21D;54543;50.712;6.070;2022-12-11T07:53:55;-0.47;86.94
67748;HTU21D;54543;50.712;6.070;2022-12-11T07:56:21;-0.58;86.61
67748;HTU21D;54543;50.712;6.070;2022-12-11T07:58:47;-0.64;86.63
67748;HTU21D;54543;50.712;6.070;2022-12-11T08:01:26;-0.65;86.88
67748;HTU21D;54543;50.712;6.070;2022-12-11T08:03:53;-0.61;87.35
67748;HTU21D;54543;50.712;6.070;2022-12-11T08:06:19;-0.55;87.51
67748;HTU21D;54543;50.712;6.070;2022-12-11T08:08:46;-0.51;87.25
67748;HTU21D;54543;50.712;6.070;2022-12-11T08:11:13;-0.44;87.37
67748;HTU21D;54543;50.712;6.070;2022-12-11T08:13:39;-0.37;87.32
67748;HTU21D;54543;50.712;6.070;2022-12-11T08:16:07;-0.31;87.16
67748;HTU21D;54543;50.712;6.070;2022-12-11T08:18:34;-0.31;86.98
67748;HTU21D;54543;50.712;6.070;2022-12-11T08:21:14;-0.28;86.94
67748;HTU21D;54543;50.712;6.070;2022-12-11T08:23:40;-0.25;87.01
67748;HTU21D;54543;50.712;6.070;2022-12-11T08:26:08;-0.23;86.93
67748;HTU21D;54543;50.712;6.070;2022-12-11T08:28:35;-0.24;86.45
67748;HTU21D;54543;50.712;6.070;2022-12-11T08:31:03;-0.27;85.79
67748;HTU21D;54543;50.712;6.070;2022-12-11T08:33:29;-0.31;85.65
67748;HTU21D;54543;50.712;6.070;2022-12-11T08:35:55;-0.34;86.17
67748;HTU21D;54543;50.712;6.070;2022-12-11T08:38:20;-0.30;86.64
67748;HTU21D;54543;50.712;6.070;2022-12-11T08:40:46;-0.25;86.74
67748;HTU21D;54543;50.712;6.070;2022-12-11T08:43:11;-0.21;86.38
67748;HTU21D;54543;50.712;6.070;2022-12-11T08:45:37;-0.20;86.41
67748;HTU21D;54543;50.712;6.070;2022-12-11T08:48:03;-0.14;86.38
67748;HTU21D;54543;50.712;6.070;2022-12-11T08:50:29;-0.14;86.22
67748;HTU21D;54543;50.712;6.070;2022-12-11T08:52:55;-0.13;85.79
67748;HTU21D;54543;50.712;6.070;2022-12-11T08:55:20;-0.14;86.00
67748;HTU21D;54543;50.712;6.070;2022-12-11T08:57:46;-0.16;86.17
67748;HTU21D;54543;50.712;6.070;2022-12-11T09:00:12;-0.20;86.26
67748;HTU21D;54543;50.712;6.070;2022-12-11T09:02:39;-0.23;86.13
67748;HTU21D;54543;50.712;6.070;2022-12-11T09:05:06;-0.28;85.97
67748;HTU21D;54543;50.712;6.070;2022-12-11T09:07:34;-0.36;86.22
67748;HTU21D;54543;50.712;6.070;2022-12-11T09:10:00;-0.38;86.46
67748;HTU21D;54543;50.712;6.070;2022-12-11T09:12:26;-0.37;86.59
67748;HTU21D;54543;50.712;6.070;2022-12-11T09:14:52;-0.30;86.77
67748;HTU21D;54543;50.712;6.070;2022-12-11T09:17:17;-0.26;86.58
67748;HTU21D;54543;50.712;6.070;2022-12-11T09:19:43;-0.21;86.61
67748;HTU21D;54543;50.712;6.070;2022-12-11T09:22:08;-0.16;86.60
67748;HTU21D;54543;50.712;6.070;2022-12-11T09:24:36;-0.11;86.42
67748;HTU21D;54543;50.712;6.070;2022-12-11T09:27:02;-0.08;86.09
67748;HTU21D;54543;50.712;6.070;2022-12-11T09:29:28;-0.08;85.96
67748;HTU21D;54543;50.712;6.070;2022-12-11T09:31:54;-0.03;85.81
67748;HTU21D;54543;50.712;6.070;2022-12-11T09:34:19;0.02;86.00
67748;HTU21D;54543;50.712;6.070;2022-12-11T09:36:45;0.05;85.76
67748;HTU21D;54543;50.712;6.070;2022-12-11T09:39:13;0.10;85.87
67748;HTU21D;54543;50.712;6.070;2022-12-11T09:42:04;0.18;85.87
67748;HTU21D;54543;50.712;6.070;2022-12-11T09:44:50;0.25;85.24
67748;HTU21D;54543;50.712;6.070;2022-12-11T09:47:36;0.23;85.06
67748;HTU21D;54543;50.712;6.070;2022-12-11T09:58:27;0.20;85.07
67748;HTU21D;54543;50.712;6.070;2022-12-11T10:01:07;0.23;84.93
67748;HTU21D;54543;50.712;6.070;2022-12-11T10:06:33;0.35;84.59
67748;HTU21D;54543;50.712;6.070;2022-12-11T10:09:06;0.40;83.66
67748;HTU21D;54543;50.712;6.070;2022-12-11T10:17:33;0.47;84.16
67748;HTU21D;54543;50.712;6.070;2022-12-11T10:20:17;0.53;84.19
67748;HTU21D;54543;50.712;6.070;2022-12-11T10:22:45;0.64;84.55
67748;HTU21D;54543;50.712;6.070;2022-12-11T10:25:25;0.73;84.19
67748;HTU21D;54543;50.712;6.070;2022-12-11T10:27:51;0.78;84.24
67748;HTU21D;54543;50.712;6.070;2022-12-11T10:30:25;0.83;84.16
67748;HTU21D;54543;50.712;6.070;2022-12-11T10:33:00;0.89;84.02
67748;HTU21D;54543;50.712;6.070;2022-12-11T10:35:56;0.95;83.42
67748;HTU21D;54543;50.712;6.070;2022-12-11T10:38:33;1.03;83.82
67748;HTU21D;54543;50.712;6.070;2022-12-11T10:41:16;1.09;83.61
67748;HTU21D;54543;50.712;6.070;2022-12-11T10:43:44;1.14;83.98
67748;HTU21D;54543;50.712;6.070;2022-12-11T10:46:25;1.27;83.48
67748;HTU21D;54543;50.712;6.070;2022-12-11T10:48:53;1.39;83.20
67748;HTU21D;54543;50.712;6.070;2022-12-11T10:51:45;1.48;82.22
67748;HTU21D;54543;50.712;6.070;2022-12-11T10:56:55;1.75;82.29
67748;HTU21D;54543;50.712;6.070;2022-12-11T11:01:56;1.77;81.87
67748;HTU21D;54543;50.712;6.070;2022-12-11T11:04:35;1.72;81.21
67748;HTU21D;54543;50.712;6.070;2022-12-11T11:07:14;1.66;80.88
67748;HTU21D;54543;50.712;6.070;2022-12-11T11:09:43;1.66;81.33
67748;HTU21D;54543;50.712;6.070;2022-12-11T11:12:20;1.73;81.33
67748;HTU21D;54543;50.712;6.070;2022-12-11T11:14:46;1.83;81.29
67748;HTU21D;54543;50.712;6.070;2022-12-11T11:17:15;1.88;80.65
67748;HTU21D;54543;50.712;6.070;2022-12-11T11:19:45;1.88;80.69
67748;HTU21D;54543;50.712;6.070;2022-12-11T11:22:13;1.97;81.21
67748;HTU21D;54543;50.712;6.070;2022-12-11T11:24:53;2.02;78.31
67748;HTU21D;54543;50.712;6.070;2022-12-11T11:30:05;2.00;79.98
67748;HTU21D;54543;50.712;6.070;2022-12-11T11:32:39;2.10;80.62
67748;HTU21D;54543;50.712;6.070;2022-12-11T11:37:38;2.30;79.70
67748;HTU21D;54543;50.712;6.070;2022-12-11T11:42:48;2.19;79.53
67748;HTU21D;54543;50.712;6.070;2022-12-11T11:45:28;2.07;80.36
67748;HTU21D;54543;50.712;6.070;2022-12-11T11:48:12;2.02;80.02
67748;HTU21D;54543;50.712;6.070;2022-12-11T11:51:10;2.07;80.33
67748;HTU21D;54543;50.712;6.070;2022-12-11T11:53:38;2.10;80.29
67748;HTU21D;54543;50.712;6.070;2022-12-11T12:01:41;2.25;79.46
67748;HTU21D;54543;50.712;6.070;2022-12-11T12:04:08;2.21;78.80
67748;HTU21D;54543;50.712;6.070;2022-12-11T12:06:47;2.19;77.99
67748;HTU21D;54543;50.712;6.070;2022-12-11T12:20:23;2.29;77.54
67748;HTU21D;54543;50.712;6.070;2022-12-11T12:26:26;2.37;78.20
67748;HTU21D;54543;50.712;6.070;2022-12-11T12:31:33;2.37;78.52
67748;HTU21D;54543;50.712;6.070;2022-12-11T12:34:12;2.34;76.89
67748;HTU21D;54543;50.712;6.070;2022-12-11T12:36:59;2.35;77.98
67748;HTU21D;54543;50.712;6.070;2022-12-11T12:42:36;2.34;77.88
67748;HTU21D;54543;50.712;6.070;2022-12-11T12:47:43;2.30;77.82
67748;HTU21D;54543;50.712;6.070;2022-12-11T12:50:20;2.29;76.95
67748;HTU21D;54543;50.712;6.070;2022-12-11T12:52:48;2.32;78.34
67748;HTU21D;54543;50.712;6.070;2022-12-11T12:55:20;2.36;78.26
67748;HTU21D;54543;50.712;6.070;2022-12-11T12:57:57;2.38;77.75
67748;HTU21D;54543;50.712;6.070;2022-12-11T13:00:39;2.37;76.76
67748;HTU21D;54543;50.712;6.070;2022-12-11T13:03:20;2.36;76.98
67748;HTU21D;54543;50.712;6.070;2022-12-11T13:06:02;2.40;76.74
67748;HTU21D;54543;50.712;6.070;2022-12-11T13:08:35;2.40;76.78
67748;HTU21D;54543;50.712;6.070;2022-12-11T13:11:07;2.42;77.94
67748;HTU21D;54543;50.712;6.070;2022-12-11T13:18:44;2.49;75.95
67748;HTU21D;54543;50.712;6.070;2022-12-11T13:21:38;2.31;75.29
67748;HTU21D;54543;50.712;6.070;2022-12-11T13:24:43;2.14;76.47
67748;HTU21D;54543;50.712;6.070;2022-12-11T13:27:21;2.03;78.30
67748;HTU21D;54543;50.712;6.070;2022-12-11T13:29:47;1.98;79.00
67748;HTU21D;54543;50.712;6.070;2022-12-11T13:34:40;1.92;79.40
67748;HTU21D;54543;50.712;6.070;2022-12-11T13:39:48;1.82;79.43
67748;HTU21D;54543;50.712;6.070;2022-12-11T13:42:25;1.70;78.65
67748;HTU21D;54543;50.712;6.070;2022-12-11T13:44:52;1.58;79.50
67748;HTU21D;54543;50.712;6.070;2022-12-11T13:47:18;1.48;80.01
67748;HTU21D;54543;50.712;6.070;2022-12-11T13:49:48;1.40;79.98
67748;HTU21D;54543;50.712;6.070;2022-12-11T13:52:20;1.39;80.85
67748;HTU21D;54543;50.712;6.070;2022-12-11T13:54:50;1.45;81.37
67748;HTU21D;54543;50.712;6.070;2022-12-11T13:57:22;1.48;81.28
67748;HTU21D;54543;50.712;6.070;2022-12-11T13:59:52;1.49;81.26
67748;HTU21D;54543;50.712;6.070;2022-12-11T14:02:33;1.56;81.45
67748;HTU21D;54543;50.712;6.070;2022-12-11T14:05:06;1.60;81.19
67748;HTU21D;54543;50.712;6.070;2022-12-11T14:07:39;1.64;81.01
67748;HTU21D;54543;50.712;6.070;2022-12-11T14:10:16;1.61;80.59
67748;HTU21D;54543;50.712;6.070;2022-12-11T14:13:04;1.56;80.56
67748;HTU21D;54543;50.712;6.070;2022-12-11T14:15:31;1.54;80.94
67748;HTU21D;54543;50.712;6.070;2022-12-11T14:17:59;1.57;81.17
67748;HTU21D;54543;50.712;6.070;2022-12-11T14:20:28;1.56;81.02
67748;HTU21D;54543;50.712;6.070;2022-12-11T14:23:14;1.57;80.84
67748;HTU21D;54543;50.712;6.070;2022-12-11T14:25:40;1.54;80.95
67748;HTU21D;54543;50.712;6.070;2022-12-11T14:28:14;1.51;80.72
67748;HTU21D;54543;50.712;6.070;2022-12-11T14:30:46;1.45;80.75
67748;HTU21D;54543;50.712;6.070;2022-12-11T14:33:14;1.41;80.92
67748;HTU21D;54543;50.712;6.070;2022-12-11T14:35:42;1.39;81.30
67748;HTU21D;54543;50.712;6.070;2022-12-11T14:38:35;1.40;80.84
67748;HTU21D;54543;50.712;6.070;2022-12-11T14:41:15;1.38;81.20
67748;HTU21D;54543;50.712;6.070;2022-12-11T14:43:47;1.37;81.24
67748;HTU21D;54543;50.712;6.070;2022-12-11T14:46:23;1.36;81.31
67748;HTU21D;54543;50.712;6.070;2022-12-11T14:48:54;1.33;81.07
67748;HTU21D;54543;50.712;6.070;2022-12-11T14:51:22;1.29;81.25
67748;HTU21D;54543;50.712;6.070;2022-12-11T14:53:51;1.25;81.23
67748;HTU21D;54543;50.712;6.070;2022-12-11T14:56:20;1.19;81.50
67748;HTU21D;54543;50.712;6.070;2022-12-11T14:59:06;1.18;81.27
67748;HTU21D;54543;50.712;6.070;2022-12-11T15:01:43;1.16;81.83
67748;HTU21D;54543;50.712;6.070;2022-12-11T15:06:45;1.14;81.94
67748;HTU21D;54543;50.712;6.070;2022-12-11T15:09:25;1.14;81.81
67748;HTU21D;54543;50.712;6.070;2022-12-11T15:11:52;1.09;81.97
67748;HTU21D;54543;50.712;6.070;2022-12-11T15:14:20;1.06;82.20
67748;HTU21D;54543;50.712;6.070;2022-12-11T15:16:48;1.03;82.17
67748;HTU21D;54543;50.712;6.070;2022-12-11T15:19:23;0.98;82.22
67748;HTU21D;54543;50.712;6.070;2022-12-11T15:21:50;0.92;82.41
67748;HTU21D;54543;50.712;6.070;2022-12-11T15:24:38;0.88;82.38
67748;HTU21D;54543;50.712;6.070;2022-12-11T15:27:22;0.82;82.64
67748;HTU21D;54543;50.712;6.070;2022-12-11T15:29:48;0.78;82.76
67748;HTU21D;54543;50.712;6.070;2022-12-11T15:34:58;0.73;82.78
67748;HTU21D;54543;50.712;6.070;2022-12-11T15:37:29;0.67;82.99
67748;HTU21D;54543;50.712;6.070;2022-12-11T15:39:57;0.63;83.09
67748;HTU21D;54543;50.712;6.070;2022-12-11T15:42:34;0.57;83.13
67748;HTU21D;54543;50.712;6.070;2022-12-11T15:45:01;0.51;83.29
67748;HTU21D;54543;50.712;6.070;2022-12-11T15:47:29;0.45;83.42
67748;HTU21D;54543;50.712;6.070;2022-12-11T15:49:59;0.37;83.56
67748;HTU21D;54543;50.712;6.070;2022-12-11T15:52:26;0.32;83.71
67748;HTU21D;54543;50.712;6.070;2022-12-11T15:54:51;0.27;83.80
67748;HTU21D;54543;50.712;6.070;2022-12-11T15:57:19;0.22;83.90
67748;HTU21D;54543;50.712;6.070;2022-12-11T15:59:46;0.18;83.99
67748;HTU21D;54543;50.712;6.070;2022-12-11T16:02:13;0.14;84.09
67748;HTU21D;54543;50.712;6.070;2022-12-11T16:04:39;0.09;84.19
67748;HTU21D;54543;50.712;6.070;2022-12-11T16:07:13;0.04;84.20
67748;HTU21D;54543;50.712;6.070;2022-12-11T16:09:39;-0.01;84.32
67748;HTU21D;54543;50.712;6.070;2022-12-11T16:12:05;-0.09;84.55
67748;HTU21D;54543;50.712;6.070;2022-12-11T16:14:30;-0.14;84.70
67748;HTU21D;54543;50.712;6.070;2022-12-11T16:16:56;-0.19;84.84
67748;HTU21D;54543;50.712;6.070;2022-12-11T16:19:21;-0.27;84.86
67748;HTU21D;54543;50.712;6.070;2022-12-11T16:21:47;-0.31;84.95
67748;HTU21D;54543;50.712;6.070;2022-12-11T16:24:13;-0.37;85.09
67748;HTU21D;54543;50.712;6.070;2022-12-11T16:26:38;-0.43;85.28
67748;HTU21D;54543;50.712;6.070;2022-12-11T16:29:04;-0.47;85.37
67748;HTU21D;54543;50.712;6.070;2022-12-11T16:31:29;-0.53;85.47
67748;HTU21D;54543;50.712;6.070;2022-12-11T16:33:55;-0.55;85.58
67748;HTU21D;54543;50.712;6.070;2022-12-11T16:36:20;-0.60;85.75
67748;HTU21D;54543;50.712;6.070;2022-12-11T16:38:47;-0.61;86.27
67748;HTU21D;54543;50.712;6.070;2022-12-11T16:41:13;-0.62;86.12
67748;HTU21D;54543;50.712;6.070;2022-12-11T16:43:38;-0.64;85.92
67748;HTU21D;54543;50.712;6.070;2022-12-11T16:46:04;-0.69;85.90
67748;HTU21D;54543;50.712;6.070;2022-12-11T16:48:30;-0.72;85.94
67748;HTU21D;54543;50.712;6.070;2022-12-11T16:50:55;-0.75;86.02
67748;HTU21D;54543;50.712;6.070;2022-12-11T16:53:22;-0.79;86.09
67748;HTU21D;54543;50.712;6.070;2022-12-11T16:55:48;-0.82;86.18
67748;HTU21D;54543;50.712;6.070;2022-12-11T16:58:13;-0.84;86.26
67748;HTU21D;54543;50.712;6.070;2022-12-11T17:00:48;-0.88;86.34
67748;HTU21D;54543;50.712;6.070;2022-12-11T17:03:14;-0.91;86.45
67748;HTU21D;54543;50.712;6.070;2022-12-11T17:05:41;-0.95;86.48
67748;HTU21D;54543;50.712;6.070;2022-12-11T17:08:08;-0.97;86.50